EGGP Airport Information

Runway Information
Runway 09 Length 7500 ft width 151 ft
Elevation 59 ft Threshold 200 ft Heading 86
Runway 27 Length 7500 ft Width 151 ft
Elevation 77 ft Threshold 0 ft Heading 266
Airport Frequencies
Type APP Name APP Frequency 119.85 MHZ
Type ATIS Name ATIS Frequency 124.325 MHZ
Type GND Name GND Frequency 121.95 MHZ
Type TWR Name TWR Frequency 126.35 MHZ
Airport Navaids
Airport Weather Information & NOTAM
ADDS - METARS form results

(1905 UTC 22 June 2018)
 
METAR text: EGGP 221850Z 32009KT 290V350 CAVOK 16/07 Q1031
Conditions at: EGGP (LIVERPOOL AIRPOR, GB) observed 1850 UTC 22 June 2018
Temperature: 16.0°C (61°F)
Dewpoint: 7.0°C (45°F) [RH = 55%]
Pressure (altimeter): 30.44 inches Hg (1031.0 mb)
Winds: from the NW (320 degrees) at 10 MPH (9 knots; 4.7 m/s)
Visibility: 6 or more miles (10+ km)
Ceiling: ceiling and visibility are OK
Clouds: unknown
Weather: no significant weather observed at this time

METAR text: EGGP 221820Z 30011KT 260V340 CAVOK 15/07 Q1031
Conditions at: EGGP (LIVERPOOL AIRPOR, GB) observed 1820 UTC 22 June 2018
Temperature: 15.0°C (59°F)
Dewpoint: 7.0°C (45°F) [RH = 59%]
Pressure (altimeter): 30.44 inches Hg (1031.0 mb)
Winds: from the WNW (300 degrees) at 13 MPH (11 knots; 5.7 m/s)
Visibility: 6 or more miles (10+ km)
Ceiling: ceiling and visibility are OK
Clouds: unknown
Weather: no significant weather observed at this time